sensor_id;sensor_type;location;lat;lon;timestamp;P1;durP1;ratioP1;P2;durP2;ratioP2
32407;SDS011;18869;55.970;37.502;2023-02-15T00:00:13;5.17;;;3.50;;
32407;SDS011;18869;55.970;37.502;2023-02-15T00:02:41;4.07;;;3.80;;
32407;SDS011;18869;55.970;37.502;2023-02-15T00:05:08;3.97;;;3.57;;
32407;SDS011;18869;55.970;37.502;2023-02-15T00:07:37;4.17;;;3.87;;
32407;SDS011;18869;55.970;37.502;2023-02-15T00:10:05;3.87;;;3.57;;
32407;SDS011;18869;55.970;37.502;2023-02-15T00:12:34;4.93;;;4.00;;
32407;SDS011;18869;55.970;37.502;2023-02-15T00:15:02;4.03;;;3.70;;
32407;SDS011;18869;55.970;37.502;2023-02-15T00:17:30;4.07;;;3.73;;
32407;SDS011;18869;55.970;37.502;2023-02-15T00:19:57;4.13;;;3.87;;
32407;SDS011;18869;55.970;37.502;2023-02-15T00:22:25;3.73;;;3.43;;
32407;SDS011;18869;55.970;37.502;2023-02-15T00:24:54;3.83;;;3.50;;
32407;SDS011;18869;55.970;37.502;2023-02-15T00:27:22;4.07;;;3.77;;
32407;SDS011;18869;55.970;37.502;2023-02-15T00:29:50;3.60;;;3.33;;
32407;SDS011;18869;55.970;37.502;2023-02-15T00:32:18;4.77;;;3.67;;
32407;SDS011;18869;55.970;37.502;2023-02-15T00:34:46;5.60;;;4.20;;
32407;SDS011;18869;55.970;37.502;2023-02-15T00:37:13;7.77;;;4.10;;
32407;SDS011;18869;55.970;37.502;2023-02-15T00:39:46;4.87;;;4.43;;
32407;SDS011;18869;55.970;37.502;2023-02-15T00:42:15;3.60;;;3.23;;
32407;SDS011;18869;55.970;37.502;2023-02-15T00:44:43;7.33;;;3.83;;
32407;SDS011;18869;55.970;37.502;2023-02-15T00:47:12;4.60;;;4.20;;
32407;SDS011;18869;55.970;37.502;2023-02-15T00:49:39;4.67;;;3.90;;
32407;SDS011;18869;55.970;37.502;2023-02-15T00:52:07;7.37;;;4.20;;
32407;SDS011;18869;55.970;37.502;2023-02-15T00:54:35;3.40;;;3.20;;
32407;SDS011;18869;55.970;37.502;2023-02-15T00:57:04;6.03;;;3.80;;
32407;SDS011;18869;55.970;37.502;2023-02-15T00:59:33;3.80;;;3.57;;
32407;SDS011;18869;55.970;37.502;2023-02-15T01:02:01;4.20;;;3.90;;
32407;SDS011;18869;55.970;37.502;2023-02-15T01:04:28;4.30;;;4.03;;
32407;SDS011;18869;55.970;37.502;2023-02-15T01:06:56;6.23;;;3.83;;
32407;SDS011;18869;55.970;37.502;2023-02-15T01:09:24;4.23;;;3.67;;
32407;SDS011;18869;55.970;37.502;2023-02-15T01:11:51;4.80;;;3.63;;
32407;SDS011;18869;55.970;37.502;2023-02-15T01:14:19;4.50;;;4.10;;
32407;SDS011;18869;55.970;37.502;2023-02-15T01:16:48;4.83;;;4.23;;
32407;SDS011;18869;55.970;37.502;2023-02-15T01:19:15;7.33;;;3.70;;
32407;SDS011;18869;55.970;37.502;2023-02-15T01:21:43;4.90;;;4.20;;
32407;SDS011;18869;55.970;37.502;2023-02-15T01:24:11;4.83;;;4.37;;
32407;SDS011;18869;55.970;37.502;2023-02-15T01:26:39;4.33;;;3.93;;
32407;SDS011;18869;55.970;37.502;2023-02-15T01:29:07;4.70;;;4.30;;
32407;SDS011;18869;55.970;37.502;2023-02-15T01:31:35;4.13;;;3.93;;
32407;SDS011;18869;55.970;37.502;2023-02-15T01:34:07;4.63;;;4.23;;
32407;SDS011;18869;55.970;37.502;2023-02-15T01:36:37;3.57;;;3.40;;
32407;SDS011;18869;55.970;37.502;2023-02-15T01:39:04;5.07;;;4.57;;
32407;SDS011;18869;55.970;37.502;2023-02-15T01:41:33;6.60;;;3.93;;
32407;SDS011;18869;55.970;37.502;2023-02-15T01:44:01;4.80;;;4.40;;
32407;SDS011;18869;55.970;37.502;2023-02-15T01:46:30;5.40;;;3.87;;
32407;SDS011;18869;55.970;37.502;2023-02-15T01:49:02;5.17;;;3.77;;
32407;SDS011;18869;55.970;37.502;2023-02-15T01:51:35;3.83;;;3.53;;
32407;SDS011;18869;55.970;37.502;2023-02-15T01:54:05;4.40;;;4.00;;
32407;SDS011;18869;55.970;37.502;2023-02-15T01:56:37;3.93;;;3.73;;
32407;SDS011;18869;55.970;37.502;2023-02-15T01:59:06;4.13;;;3.93;;
32407;SDS011;18869;55.970;37.502;2023-02-15T02:01:37;4.37;;;4.00;;
32407;SDS011;18869;55.970;37.502;2023-02-15T02:04:07;4.90;;;4.53;;
32407;SDS011;18869;55.970;37.502;2023-02-15T02:06:38;4.60;;;4.33;;
32407;SDS011;18869;55.970;37.502;2023-02-15T02:09:06;5.27;;;3.50;;
32407;SDS011;18869;55.970;37.502;2023-02-15T02:11:35;3.57;;;3.30;;
32407;SDS011;18869;55.970;37.502;2023-02-15T02:14:03;5.33;;;4.00;;
32407;SDS011;18869;55.970;37.502;2023-02-15T02:16:32;7.60;;;4.83;;
32407;SDS011;18869;55.970;37.502;2023-02-15T02:19:19;4.43;;;4.13;;
32407;SDS011;18869;55.970;37.502;2023-02-15T02:22:17;3.70;;;3.40;;
32407;SDS011;18869;55.970;37.502;2023-02-15T02:24:59;7.63;;;5.23;;
32407;SDS011;18869;55.970;37.502;2023-02-15T02:27:39;7.77;;;5.07;;
32407;SDS011;18869;55.970;37.502;2023-02-15T02:30:18;4.60;;;4.20;;
32407;SDS011;18869;55.970;37.502;2023-02-15T02:33:14;4.90;;;4.30;;
32407;SDS011;18869;55.970;37.502;2023-02-15T02:36:12;4.40;;;4.10;;
32407;SDS011;18869;55.970;37.502;2023-02-15T02:38:46;6.33;;;4.80;;
32407;SDS011;18869;55.970;37.502;2023-02-15T02:41:32;3.93;;;3.63;;
32407;SDS011;18869;55.970;37.502;2023-02-15T02:44:06;4.70;;;4.30;;
32407;SDS011;18869;55.970;37.502;2023-02-15T02:46:39;4.43;;;4.03;;
32407;SDS011;18869;55.970;37.502;2023-02-15T02:49:17;5.03;;;4.63;;
32407;SDS011;18869;55.970;37.502;2023-02-15T02:51:59;5.47;;;4.80;;
32407;SDS011;18869;55.970;37.502;2023-02-15T02:54:27;9.03;;;4.40;;
32407;SDS011;18869;55.970;37.502;2023-02-15T02:56:55;5.23;;;3.83;;
32407;SDS011;18869;55.970;37.502;2023-02-15T02:59:24;4.80;;;4.17;;
32407;SDS011;18869;55.970;37.502;2023-02-15T03:01:57;6.43;;;4.00;;
32407;SDS011;18869;55.970;37.502;2023-02-15T03:04:30;5.03;;;4.33;;
32407;SDS011;18869;55.970;37.502;2023-02-15T03:07:00;5.77;;;4.17;;
32407;SDS011;18869;55.970;37.502;2023-02-15T03:09:31;4.57;;;4.27;;
32407;SDS011;18869;55.970;37.502;2023-02-15T03:12:07;6.17;;;4.23;;
32407;SDS011;18869;55.970;37.502;2023-02-15T03:14:36;7.10;;;4.33;;
32407;SDS011;18869;55.970;37.502;2023-02-15T03:17:04;5.93;;;5.00;;
32407;SDS011;18869;55.970;37.502;2023-02-15T03:19:35;6.87;;;4.50;;
32407;SDS011;18869;55.970;37.502;2023-02-15T03:22:05;4.73;;;4.33;;
32407;SDS011;18869;55.970;37.502;2023-02-15T03:24:36;7.03;;;4.00;;
32407;SDS011;18869;55.970;37.502;2023-02-15T03:27:06;6.40;;;4.33;;
32407;SDS011;18869;55.970;37.502;2023-02-15T03:29:36;4.80;;;4.40;;
32407;SDS011;18869;55.970;37.502;2023-02-15T03:32:04;4.73;;;3.67;;
32407;SDS011;18869;55.970;37.502;2023-02-15T03:34:36;4.83;;;4.37;;
32407;SDS011;18869;55.970;37.502;2023-02-15T03:37:04;7.30;;;3.97;;
32407;SDS011;18869;55.970;37.502;2023-02-15T03:39:38;6.90;;;4.70;;
32407;SDS011;18869;55.970;37.502;2023-02-15T03:42:10;4.37;;;4.03;;
32407;SDS011;18869;55.970;37.502;2023-02-15T03:44:45;7.97;;;4.07;;
32407;SDS011;18869;55.970;37.502;2023-02-15T03:47:18;4.37;;;3.97;;
32407;SDS011;18869;55.970;37.502;2023-02-15T03:49:50;4.10;;;3.70;;
32407;SDS011;18869;55.970;37.502;2023-02-15T03:52:20;6.43;;;4.37;;
32407;SDS011;18869;55.970;37.502;2023-02-15T03:54:49;10.80;;;4.53;;
32407;SDS011;18869;55.970;37.502;2023-02-15T03:57:17;4.30;;;3.83;;
32407;SDS011;18869;55.970;37.502;2023-02-15T04:00:04;4.00;;;3.70;;
32407;SDS011;18869;55.970;37.502;2023-02-15T04:05:50;4.77;;;4.57;;
32407;SDS011;18869;55.970;37.502;2023-02-15T04:08:18;4.73;;;4.20;;
32407;SDS011;18869;55.970;37.502;2023-02-15T04:10:46;4.77;;;4.37;;
32407;SDS011;18869;55.970;37.502;2023-02-15T04:13:18;5.43;;;3.87;;
32407;SDS011;18869;55.970;37.502;2023-02-15T04:15:46;4.40;;;4.00;;
32407;SDS011;18869;55.970;37.502;2023-02-15T04:18:32;4.33;;;4.03;;
32407;SDS011;18869;55.970;37.502;2023-02-15T04:21:20;5.10;;;4.17;;
32407;SDS011;18869;55.970;37.502;2023-02-15T04:24:06;4.53;;;4.10;;
32407;SDS011;18869;55.970;37.502;2023-02-15T04:26:51;4.50;;;4.17;;
32407;SDS011;18869;55.970;37.502;2023-02-15T04:29:20;9.17;;;4.33;;
32407;SDS011;18869;55.970;37.502;2023-02-15T04:31:48;5.93;;;5.50;;
32407;SDS011;18869;55.970;37.502;2023-02-15T04:34:16;4.70;;;4.27;;
32407;SDS011;18869;55.970;37.502;2023-02-15T04:36:47;6.70;;;4.40;;
32407;SDS011;18869;55.970;37.502;2023-02-15T04:39:16;4.90;;;4.47;;
32407;SDS011;18869;55.970;37.502;2023-02-15T04:41:44;7.20;;;4.27;;
32407;SDS011;18869;55.970;37.502;2023-02-15T04:44:13;4.73;;;4.23;;
32407;SDS011;18869;55.970;37.502;2023-02-15T04:46:41;5.77;;;5.10;;
32407;SDS011;18869;55.970;37.502;2023-02-15T04:49:08;7.07;;;4.40;;
32407;SDS011;18869;55.970;37.502;2023-02-15T04:51:37;5.17;;;4.77;;
32407;SDS011;18869;55.970;37.502;2023-02-15T04:54:06;4.57;;;4.30;;
32407;SDS011;18869;55.970;37.502;2023-02-15T04:56:33;6.73;;;4.47;;
32407;SDS011;18869;55.970;37.502;2023-02-15T04:59:04;6.83;;;6.10;;
32407;SDS011;18869;55.970;37.502;2023-02-15T05:01:32;4.47;;;4.23;;
32407;SDS011;18869;55.970;37.502;2023-02-15T05:03:59;8.27;;;6.13;;
32407;SDS011;18869;55.970;37.502;2023-02-15T05:06:27;5.40;;;4.80;;
32407;SDS011;18869;55.970;37.502;2023-02-15T05:08:55;7.50;;;4.47;;
32407;SDS011;18869;55.970;37.502;2023-02-15T05:11:26;5.77;;;4.53;;
32407;SDS011;18869;55.970;37.502;2023-02-15T05:13:54;5.10;;;4.70;;
32407;SDS011;18869;55.970;37.502;2023-02-15T05:16:21;5.43;;;5.03;;
32407;SDS011;18869;55.970;37.502;2023-02-15T05:18:49;5.77;;;4.80;;
32407;SDS011;18869;55.970;37.502;2023-02-15T05:21:16;5.73;;;5.23;;
32407;SDS011;18869;55.970;37.502;2023-02-15T05:23:44;5.97;;;5.43;;
32407;SDS011;18869;55.970;37.502;2023-02-15T05:26:12;9.50;;;5.57;;
32407;SDS011;18869;55.970;37.502;2023-02-15T05:29:02;7.23;;;5.00;;
32407;SDS011;18869;55.970;37.502;2023-02-15T05:31:31;6.60;;;5.87;;
32407;SDS011;18869;55.970;37.502;2023-02-15T05:33:58;7.40;;;5.33;;
32407;SDS011;18869;55.970;37.502;2023-02-15T05:36:28;4.77;;;4.30;;
32407;SDS011;18869;55.970;37.502;2023-02-15T05:38:56;6.67;;;5.83;;
32407;SDS011;18869;55.970;37.502;2023-02-15T05:41:23;6.60;;;5.17;;
32407;SDS011;18869;55.970;37.502;2023-02-15T05:43:54;8.47;;;6.00;;
32407;SDS011;18869;55.970;37.502;2023-02-15T05:46:24;6.20;;;5.10;;
32407;SDS011;18869;55.970;37.502;2023-02-15T05:48:51;7.73;;;6.20;;
32407;SDS011;18869;55.970;37.502;2023-02-15T05:51:20;7.87;;;5.30;;
32407;SDS011;18869;55.970;37.502;2023-02-15T05:53:47;6.67;;;6.07;;
32407;SDS011;18869;55.970;37.502;2023-02-15T05:56:16;7.57;;;5.47;;
32407;SDS011;18869;55.970;37.502;2023-02-15T05:58:44;7.43;;;5.67;;
32407;SDS011;18869;55.970;37.502;2023-02-15T06:01:12;6.37;;;5.77;;
32407;SDS011;18869;55.970;37.502;2023-02-15T06:03:42;6.53;;;5.90;;
32407;SDS011;18869;55.970;37.502;2023-02-15T06:06:10;7.33;;;5.70;;
32407;SDS011;18869;55.970;37.502;2023-02-15T06:08:38;6.53;;;5.87;;
32407;SDS011;18869;55.970;37.502;2023-02-15T06:11:06;8.63;;;5.73;;
32407;SDS011;18869;55.970;37.502;2023-02-15T06:13:34;7.83;;;5.57;;
32407;SDS011;18869;55.970;37.502;2023-02-15T06:16:02;5.87;;;5.07;;
32407;SDS011;18869;55.970;37.502;2023-02-15T06:18:30;9.23;;;4.73;;
32407;SDS011;18869;55.970;37.502;2023-02-15T06:20:59;5.53;;;5.13;;
32407;SDS011;18869;55.970;37.502;2023-02-15T06:23:27;4.93;;;4.40;;
32407;SDS011;18869;55.970;37.502;2023-02-15T06:25:55;4.30;;;4.00;;
32407;SDS011;18869;55.970;37.502;2023-02-15T06:28:22;5.17;;;4.67;;
32407;SDS011;18869;55.970;37.502;2023-02-15T06:30:51;6.57;;;4.33;;
32407;SDS011;18869;55.970;37.502;2023-02-15T06:33:19;4.83;;;4.50;;
32407;SDS011;18869;55.970;37.502;2023-02-15T06:35:47;7.07;;;4.73;;
32407;SDS011;18869;55.970;37.502;2023-02-15T06:38:16;4.63;;;4.20;;
32407;SDS011;18869;55.970;37.502;2023-02-15T06:40:44;5.03;;;4.63;;
32407;SDS011;18869;55.970;37.502;2023-02-15T06:43:11;4.97;;;4.57;;
32407;SDS011;18869;55.970;37.502;2023-02-15T06:45:39;4.70;;;4.30;;
32407;SDS011;18869;55.970;37.502;2023-02-15T06:48:08;5.17;;;4.37;;
32407;SDS011;18869;55.970;37.502;2023-02-15T06:50:36;7.47;;;5.43;;
32407;SDS011;18869;55.970;37.502;2023-02-15T06:53:04;5.47;;;5.00;;
32407;SDS011;18869;55.970;37.502;2023-02-15T06:55:38;5.10;;;4.73;;
32407;SDS011;18869;55.970;37.502;2023-02-15T06:58:05;5.17;;;4.77;;
32407;SDS011;18869;55.970;37.502;2023-02-15T07:00:33;5.47;;;4.97;;
32407;SDS011;18869;55.970;37.502;2023-02-15T07:03:01;8.90;;;5.30;;
32407;SDS011;18869;55.970;37.502;2023-02-15T07:05:28;6.00;;;5.53;;
32407;SDS011;18869;55.970;37.502;2023-02-15T07:07:56;6.67;;;5.03;;
32407;SDS011;18869;55.970;37.502;2023-02-15T07:10:24;5.40;;;5.00;;
32407;SDS011;18869;55.970;37.502;2023-02-15T07:12:53;7.00;;;5.50;;
32407;SDS011;18869;55.970;37.502;2023-02-15T07:15:19;6.83;;;6.13;;
32407;SDS011;18869;55.970;37.502;2023-02-15T07:17:48;9.20;;;5.07;;
32407;SDS011;18869;55.970;37.502;2023-02-15T07:20:16;8.70;;;5.47;;
32407;SDS011;18869;55.970;37.502;2023-02-15T07:22:45;7.30;;;4.90;;
32407;SDS011;18869;55.970;37.502;2023-02-15T07:25:13;10.23;;;5.37;;
32407;SDS011;18869;55.970;37.502;2023-02-15T07:27:41;11.13;;;4.87;;
32407;SDS011;18869;55.970;37.502;2023-02-15T07:30:13;8.40;;;5.30;;
32407;SDS011;18869;55.970;37.502;2023-02-15T07:32:42;6.37;;;4.27;;
32407;SDS011;18869;55.970;37.502;2023-02-15T07:35:28;4.97;;;4.57;;
32407;SDS011;18869;55.970;37.502;2023-02-15T07:37:56;5.23;;;4.77;;
32407;SDS011;18869;55.970;37.502;2023-02-15T07:40:23;5.40;;;4.73;;
32407;SDS011;18869;55.970;37.502;2023-02-15T07:42:51;5.13;;;4.10;;
32407;SDS011;18869;55.970;37.502;2023-02-15T07:45:23;5.13;;;4.67;;
32407;SDS011;18869;55.970;37.502;2023-02-15T07:47:52;5.23;;;4.73;;
32407;SDS011;18869;55.970;37.502;2023-02-15T07:50:20;5.23;;;4.77;;
32407;SDS011;18869;55.970;37.502;2023-02-15T07:52:47;6.37;;;4.50;;
32407;SDS011;18869;55.970;37.502;2023-02-15T07:55:15;6.73;;;5.03;;
32407;SDS011;18869;55.970;37.502;2023-02-15T07:57:44;4.77;;;4.40;;
32407;SDS011;18869;55.970;37.502;2023-02-15T08:00:13;5.97;;;4.33;;
32407;SDS011;18869;55.970;37.502;2023-02-15T08:02:44;4.40;;;3.93;;
32407;SDS011;18869;55.970;37.502;2023-02-15T08:05:35;7.43;;;4.93;;
32407;SDS011;18869;55.970;37.502;2023-02-15T08:08:03;4.53;;;4.10;;
32407;SDS011;18869;55.970;37.502;2023-02-15T08:10:31;5.07;;;4.63;;
32407;SDS011;18869;55.970;37.502;2023-02-15T08:13:16;5.23;;;4.53;;
32407;SDS011;18869;55.970;37.502;2023-02-15T08:15:47;6.97;;;4.77;;
32407;SDS011;18869;55.970;37.502;2023-02-15T08:18:18;6.57;;;5.17;;
32407;SDS011;18869;55.970;37.502;2023-02-15T08:20:48;4.67;;;4.37;;
32407;SDS011;18869;55.970;37.502;2023-02-15T08:23:16;5.60;;;4.80;;
32407;SDS011;18869;55.970;37.502;2023-02-15T08:25:44;4.97;;;4.43;;
32407;SDS011;18869;55.970;37.502;2023-02-15T08:28:14;4.43;;;4.03;;
32407;SDS011;18869;55.970;37.502;2023-02-15T08:30:42;5.20;;;4.43;;
32407;SDS011;18869;55.970;37.502;2023-02-15T08:33:10;4.50;;;4.20;;
32407;SDS011;18869;55.970;37.502;2023-02-15T08:35:39;7.73;;;4.23;;
32407;SDS011;18869;55.970;37.502;2023-02-15T08:38:07;4.80;;;4.40;;
32407;SDS011;18869;55.970;37.502;2023-02-15T08:40:35;5.70;;;4.87;;
32407;SDS011;18869;55.970;37.502;2023-02-15T08:43:03;4.80;;;4.30;;
32407;SDS011;18869;55.970;37.502;2023-02-15T08:45:32;5.37;;;4.70;;
32407;SDS011;18869;55.970;37.502;2023-02-15T08:48:00;7.53;;;5.50;;
32407;SDS011;18869;55.970;37.502;2023-02-15T08:50:28;5.87;;;5.27;;
32407;SDS011;18869;55.970;37.502;2023-02-15T08:52:57;5.20;;;4.60;;
32407;SDS011;18869;55.970;37.502;2023-02-15T08:55:24;5.67;;;4.87;;
32407;SDS011;18869;55.970;37.502;2023-02-15T08:57:52;6.90;;;4.30;;
32407;SDS011;18869;55.970;37.502;2023-02-15T09:00:21;5.07;;;4.67;;
32407;SDS011;18869;55.970;37.502;2023-02-15T09:02:49;5.20;;;4.80;;
32407;SDS011;18869;55.970;37.502;2023-02-15T09:05:17;5.33;;;3.87;;
32407;SDS011;18869;55.970;37.502;2023-02-15T09:07:45;8.53;;;4.23;;
32407;SDS011;18869;55.970;37.502;2023-02-15T09:10:15;5.67;;;3.90;;
32407;SDS011;18869;55.970;37.502;2023-02-15T09:12:42;4.80;;;4.37;;
32407;SDS011;18869;55.970;37.502;2023-02-15T09:15:10;4.73;;;4.23;;
32407;SDS011;18869;55.970;37.502;2023-02-15T09:17:38;8.33;;;4.30;;
32407;SDS011;18869;55.970;37.502;2023-02-15T09:20:06;6.67;;;5.57;;
32407;SDS011;18869;55.970;37.502;2023-02-15T09:22:35;4.73;;;4.33;;
32407;SDS011;18869;55.970;37.502;2023-02-15T09:25:02;5.13;;;4.63;;
32407;SDS011;18869;55.970;37.502;2023-02-15T09:27:32;5.50;;;4.90;;
32407;SDS011;18869;55.970;37.502;2023-02-15T09:30:05;5.33;;;4.83;;
32407;SDS011;18869;55.970;37.502;2023-02-15T09:32:34;9.17;;;5.33;;
32407;SDS011;18869;55.970;37.502;2023-02-15T09:35:01;5.23;;;4.50;;
32407;SDS011;18869;55.970;37.502;2023-02-15T09:37:29;4.90;;;4.17;;
32407;SDS011;18869;55.970;37.502;2023-02-15T09:39:58;4.87;;;4.47;;
32407;SDS011;18869;55.970;37.502;2023-02-15T09:42:41;6.37;;;5.00;;
32407;SDS011;18869;55.970;37.502;2023-02-15T09:45:30;5.07;;;4.40;;
32407;SDS011;18869;55.970;37.502;2023-02-15T09:48:23;5.60;;;4.20;;
32407;SDS011;18869;55.970;37.502;2023-02-15T09:51:03;6.60;;;4.43;;
32407;SDS011;18869;55.970;37.502;2023-02-15T09:53:50;7.13;;;4.87;;
32407;SDS011;18869;55.970;37.502;2023-02-15T09:56:27;9.50;;;4.30;;
32407;SDS011;18869;55.970;37.502;2023-02-15T09:58:59;6.20;;;4.33;;
32407;SDS011;18869;55.970;37.502;2023-02-15T10:01:36;4.83;;;4.43;;
32407;SDS011;18869;55.970;37.502;2023-02-15T10:04:19;4.50;;;4.10;;
32407;SDS011;18869;55.970;37.502;2023-02-15T10:06:58;4.87;;;4.47;;
32407;SDS011;18869;55.970;37.502;2023-02-15T10:09:40;4.77;;;4.37;;
32407;SDS011;18869;55.970;37.502;2023-02-15T10:12:23;4.53;;;4.20;;
32407;SDS011;18869;55.970;37.502;2023-02-15T10:15:07;5.00;;;4.47;;
32407;SDS011;18869;55.970;37.502;2023-02-15T10:17:54;5.30;;;4.90;;
32407;SDS011;18869;55.970;37.502;2023-02-15T10:20:45;4.40;;;3.60;;
32407;SDS011;18869;55.970;37.502;2023-02-15T10:23:26;4.40;;;4.00;;
32407;SDS011;18869;55.970;37.502;2023-02-15T10:26:08;3.43;;;3.23;;
32407;SDS011;18869;55.970;37.502;2023-02-15T10:28:41;4.10;;;3.67;;
32407;SDS011;18869;55.970;37.502;2023-02-15T10:31:16;5.23;;;3.90;;
32407;SDS011;18869;55.970;37.502;2023-02-15T10:36:43;4.50;;;4.20;;
32407;SDS011;18869;55.970;37.502;2023-02-15T10:39:23;4.57;;;4.27;;
32407;SDS011;18869;55.970;37.502;2023-02-15T10:41:56;5.33;;;4.87;;
32407;SDS011;18869;55.970;37.502;2023-02-15T10:47:23;4.13;;;3.70;;
32407;SDS011;18869;55.970;37.502;2023-02-15T10:50:06;4.60;;;4.20;;
32407;SDS011;18869;55.970;37.502;2023-02-15T10:52:46;4.20;;;3.83;;
32407;SDS011;18869;55.970;37.502;2023-02-15T10:55:24;4.30;;;3.87;;
32407;SDS011;18869;55.970;37.502;2023-02-15T10:57:59;4.50;;;4.10;;
32407;SDS011;18869;55.970;37.502;2023-02-15T11:00:35;4.90;;;4.47;;
32407;SDS011;18869;55.970;37.502;2023-02-15T11:06:10;3.20;;;3.00;;
32407;SDS011;18869;55.970;37.502;2023-02-15T11:08:39;3.90;;;3.60;;
32407;SDS011;18869;55.970;37.502;2023-02-15T11:11:12;4.23;;;3.93;;
32407;SDS011;18869;55.970;37.502;2023-02-15T11:13:44;4.77;;;3.53;;
32407;SDS011;18869;55.970;37.502;2023-02-15T11:16:14;4.23;;;3.90;;
32407;SDS011;18869;55.970;37.502;2023-02-15T11:18:44;3.90;;;3.67;;
32407;SDS011;18869;55.970;37.502;2023-02-15T11:21:17;4.20;;;3.80;;
32407;SDS011;18869;55.970;37.502;2023-02-15T11:23:48;4.27;;;3.97;;
32407;SDS011;18869;55.970;37.502;2023-02-15T11:26:19;4.13;;;3.83;;
32407;SDS011;18869;55.970;37.502;2023-02-15T11:28:52;4.70;;;4.17;;
32407;SDS011;18869;55.970;37.502;2023-02-15T11:31:25;5.30;;;4.17;;
32407;SDS011;18869;55.970;37.502;2023-02-15T11:33:55;6.00;;;4.37;;
32407;SDS011;18869;55.970;37.502;2023-02-15T11:36:28;3.73;;;3.53;;
32407;SDS011;18869;55.970;37.502;2023-02-15T11:39:01;3.97;;;3.57;;
32407;SDS011;18869;55.970;37.502;2023-02-15T11:41:31;4.53;;;4.10;;
32407;SDS011;18869;55.970;37.502;2023-02-15T11:44:04;3.87;;;3.67;;
32407;SDS011;18869;55.970;37.502;2023-02-15T11:46:35;4.07;;;3.77;;
32407;SDS011;18869;55.970;37.502;2023-02-15T11:49:07;6.60;;;4.13;;
32407;SDS011;18869;55.970;37.502;2023-02-15T11:51:41;3.30;;;3.10;;
32407;SDS011;18869;55.970;37.502;2023-02-15T11:54:10;3.57;;;3.37;;
32407;SDS011;18869;55.970;37.502;2023-02-15T11:56:38;3.20;;;3.00;;
32407;SDS011;18869;55.970;37.502;2023-02-15T11:59:06;3.63;;;3.40;;
32407;SDS011;18869;55.970;37.502;2023-02-15T12:01:40;4.13;;;3.93;;
32407;SDS011;18869;55.970;37.502;2023-02-15T12:04:12;3.43;;;3.23;;
32407;SDS011;18869;55.970;37.502;2023-02-15T12:06:51;3.50;;;3.30;;
32407;SDS011;18869;55.970;37.502;2023-02-15T12:09:27;4.17;;;3.97;;
32407;SDS011;18869;55.970;37.502;2023-02-15T12:14:48;3.73;;;3.53;;
32407;SDS011;18869;55.970;37.502;2023-02-15T12:17:17;4.20;;;3.30;;
32407;SDS011;18869;55.970;37.502;2023-02-15T12:19:45;3.80;;;3.60;;
32407;SDS011;18869;55.970;37.502;2023-02-15T12:22:21;3.53;;;3.33;;
32407;SDS011;18869;55.970;37.502;2023-02-15T12:24:54;3.50;;;3.30;;
32407;SDS011;18869;55.970;37.502;2023-02-15T12:27:26;3.80;;;3.50;;
32407;SDS011;18869;55.970;37.502;2023-02-15T12:29:55;4.40;;;4.10;;
32407;SDS011;18869;55.970;37.502;2023-02-15T12:32:25;4.03;;;3.73;;
32407;SDS011;18869;55.970;37.502;2023-02-15T12:34:55;3.80;;;3.50;;
32407;SDS011;18869;55.970;37.502;2023-02-15T12:37:30;4.23;;;3.60;;
32407;SDS011;18869;55.970;37.502;2023-02-15T12:40:04;4.57;;;4.27;;
32407;SDS011;18869;55.970;37.502;2023-02-15T12:42:47;4.40;;;4.10;;
32407;SDS011;18869;55.970;37.502;2023-02-15T12:45:22;4.40;;;4.00;;
32407;SDS011;18869;55.970;37.502;2023-02-15T12:48:08;4.03;;;3.73;;
32407;SDS011;18869;55.970;37.502;2023-02-15T12:50:37;4.13;;;3.73;;
32407;SDS011;18869;55.970;37.502;2023-02-15T12:53:08;3.87;;;3.57;;
32407;SDS011;18869;55.970;37.502;2023-02-15T12:55:52;4.00;;;3.60;;
32407;SDS011;18869;55.970;37.502;2023-02-15T12:58:23;6.87;;;3.70;;
32407;SDS011;18869;55.970;37.502;2023-02-15T13:01:02;4.37;;;4.07;;
32407;SDS011;18869;55.970;37.502;2023-02-15T13:03:32;4.57;;;4.17;;
32407;SDS011;18869;55.970;37.502;2023-02-15T13:06:00;4.27;;;3.87;;
32407;SDS011;18869;55.970;37.502;2023-02-15T13:08:35;5.20;;;4.00;;
32407;SDS011;18869;55.970;37.502;2023-02-15T13:11:10;4.10;;;3.87;;
32407;SDS011;18869;55.970;37.502;2023-02-15T13:13:46;4.17;;;3.90;;
32407;SDS011;18869;55.970;37.502;2023-02-15T13:16:19;3.90;;;3.60;;
32407;SDS011;18869;55.970;37.502;2023-02-15T13:18:56;4.10;;;3.77;;
32407;SDS011;18869;55.970;37.502;2023-02-15T13:21:29;5.53;;;5.03;;
32407;SDS011;18869;55.970;37.502;2023-02-15T13:24:01;4.90;;;3.97;;
32407;SDS011;18869;55.970;37.502;2023-02-15T13:26:32;4.03;;;3.73;;
32407;SDS011;18869;55.970;37.502;2023-02-15T13:29:06;3.93;;;3.57;;
32407;SDS011;18869;55.970;37.502;2023-02-15T13:31:35;3.80;;;3.50;;
32407;SDS011;18869;55.970;37.502;2023-02-15T13:34:07;3.57;;;3.37;;
32407;SDS011;18869;55.970;37.502;2023-02-15T13:36:38;3.47;;;3.17;;
32407;SDS011;18869;55.970;37.502;2023-02-15T13:39:14;4.10;;;3.80;;
32407;SDS011;18869;55.970;37.502;2023-02-15T13:41:48;4.23;;;4.03;;
32407;SDS011;18869;55.970;37.502;2023-02-15T13:44:23;3.93;;;3.67;;
32407;SDS011;18869;55.970;37.502;2023-02-15T13:47:15;4.00;;;3.70;;
32407;SDS011;18869;55.970;37.502;2023-02-15T13:49:50;3.90;;;3.60;;
32407;SDS011;18869;55.970;37.502;2023-02-15T13:52:29;4.23;;;4.03;;
32407;SDS011;18869;55.970;37.502;2023-02-15T13:55:13;4.30;;;4.10;;
32407;SDS011;18869;55.970;37.502;2023-02-15T13:58:02;3.80;;;3.60;;
32407;SDS011;18869;55.970;37.502;2023-02-15T14:00:56;3.87;;;3.67;;
32407;SDS011;18869;55.970;37.502;2023-02-15T14:06:38;3.67;;;3.40;;
32407;SDS011;18869;55.970;37.502;2023-02-15T14:09:27;4.00;;;3.67;;
32407;SDS011;18869;55.970;37.502;2023-02-15T14:12:09;4.07;;;3.87;;
32407;SDS011;18869;55.970;37.502;2023-02-15T14:17:51;3.47;;;3.10;;
32407;SDS011;18869;55.970;37.502;2023-02-15T14:20:29;3.90;;;3.60;;
32407;SDS011;18869;55.970;37.502;2023-02-15T14:23:03;4.33;;;4.03;;
32407;SDS011;18869;55.970;37.502;2023-02-15T14:25:38;3.97;;;3.77;;
32407;SDS011;18869;55.970;37.502;2023-02-15T14:28:11;3.73;;;3.53;;
32407;SDS011;18869;55.970;37.502;2023-02-15T14:30:43;3.77;;;3.57;;
32407;SDS011;18869;55.970;37.502;2023-02-15T14:33:20;5.17;;;4.40;;
32407;SDS011;18869;55.970;37.502;2023-02-15T14:35:59;3.80;;;3.50;;
32407;SDS011;18869;55.970;37.502;2023-02-15T14:38:33;4.13;;;3.83;;
32407;SDS011;18869;55.970;37.502;2023-02-15T14:41:15;4.47;;;4.27;;
32407;SDS011;18869;55.970;37.502;2023-02-15T14:43:50;3.90;;;3.60;;
32407;SDS011;18869;55.970;37.502;2023-02-15T14:46:24;4.30;;;4.03;;
32407;SDS011;18869;55.970;37.502;2023-02-15T14:48:55;4.43;;;4.13;;
32407;SDS011;18869;55.970;37.502;2023-02-15T14:57:27;4.17;;;3.77;;
32407;SDS011;18869;55.970;37.502;2023-02-15T15:00:04;4.33;;;4.13;;
32407;SDS011;18869;55.970;37.502;2023-02-15T15:02:57;4.70;;;4.50;;
32407;SDS011;18869;55.970;37.502;2023-02-15T15:05:31;4.87;;;4.47;;
32407;SDS011;18869;55.970;37.502;2023-02-15T15:08:01;4.53;;;4.33;;
32407;SDS011;18869;55.970;37.502;2023-02-15T15:10:36;3.80;;;3.60;;
32407;SDS011;18869;55.970;37.502;2023-02-15T15:22:31;3.50;;;3.30;;
32407;SDS011;18869;55.970;37.502;2023-02-15T15:25:00;3.47;;;3.27;;
32407;SDS011;18869;55.970;37.502;2023-02-15T15:27:46;4.00;;;3.70;;
32407;SDS011;18869;55.970;37.502;2023-02-15T15:33:33;3.87;;;3.67;;
32407;SDS011;18869;55.970;37.502;2023-02-15T15:49:32;4.57;;;4.17;;
32407;SDS011;18869;55.970;37.502;2023-02-15T15:52:01;4.10;;;3.73;;
32407;SDS011;18869;55.970;37.502;2023-02-15T15:54:35;4.17;;;3.97;;